Latest Weather Observations for Swan Hill

IDV60801

Issued at 3:35 pm EST Friday 19 September 2014 (issued every 30 minutes, with the page automatically refreshed every 10 minutes)

About weather observations | Map of weather stations | Latest weather observations for VIC | Other Formats
Station Details ID: 077094 Name: SWAN HILL AERODROME Lat: -35.38 Lon: 143.54 Height: 71.0 m
Data from the previous 72 hours. | See also: Recent months at Swan Hill
Date/Time
EST
Temp
°C
App
Temp
°C
Dew
Point
Rel
Hum
%
Delta-T
°C
Wind Press
QNH
hPa
Press
MSL
hPa
Rain
since 9 am
mm
Dir
 
Spd
km/h
Gust
km/h
Spd
kts
Gust
kts
19/03:30pm 18.2 13.1 -5.1 20 9.1 SW 13 17 7 9 1022.9 - 0.0
19/03:00pm 18.2 13.3 -3.2 23 8.7 SW 13 24 7 13 1023.1 1023.1 0.0
19/02:30pm 17.7 12.9 -2.5 25 8.3 S 13 22 7 12 1023.4 - 0.0
19/02:00pm 17.8 14.3 -1.1 27 8.0 S 7 20 4 11 1023.6 - 0.0
19/01:30pm 18.0 13.7 -1.5 26 8.2 SSW 11 17 6 9 1023.7 - 0.0
19/01:00pm 17.3 13.8 -1.7 27 7.9 S 7 17 4 9 1024.2 - 0.0
19/12:30pm 16.5 12.2 -1.7 29 7.5 S 11 22 6 12 1024.5 - 0.0
19/12:00pm 15.8 11.2 -1.4 31 7.1 S 13 20 7 11 1024.9 1024.9 0.0
19/11:30am 15.2 10.9 -1.8 31 6.9 S 11 17 6 9 1025.2 - 0.0
19/11:00am 14.9 10.3 -1.2 33 6.6 SE 13 26 7 14 1025.6 - 0.0
19/10:30am 14.2 9.9 -1.7 33 6.4 S 11 24 6 13 1026.0 - 0.0
19/10:00am 13.1 8.8 0.7 42 5.2 ESE 13 22 7 12 1026.4 - 0.0
19/09:30am 12.8 9.0 1.9 47 4.7 E 11 19 6 10 1026.5 - 0.0
19/09:00am 11.5 8.1 1.8 51 4.1 SSE 9 15 5 8 1026.6 1026.7 0.0
19/08:30am 9.1 5.5 3.0 65 2.6 SSE 11 15 6 8 1026.4 - 0.0
19/08:00am 6.6 3.7 2.5 75 1.7 SSE 7 11 4 6 1026.2 - 0.0
19/07:30am 4.2 1.2 1.9 85 0.9 SSE 7 11 4 6 1026.2 - 0.0
19/07:00am 1.3 -0.8 -0.7 86 0.7 CALM 0 4 0 2 1025.8 - 0.0
19/06:30am 0.0 - - - - SSE 6 9 3 5 1025.4 - 0.0
19/06:00am 0.3 - - - - CALM 0 0 0 0 1025.2 1025.2 0.0
19/05:30am 0.3 - - - - CALM 0 2 0 1 1025.0 - 0.0
19/05:00am 1.8 -1.5 0.4 90 0.5 SSE 7 9 4 5 1024.8 - 0.0
19/04:30am 1.3 -2.5 -0.4 88 0.6 SSE 9 11 5 6 1024.7 - 0.0
19/04:00am 2.1 -1.1 0.5 89 0.6 SSE 7 9 4 5 1024.8 - 0.0
19/03:30am 1.5 -2.2 -0.2 88 0.6 SSE 9 9 5 5 1024.8 - 0.0
19/03:00am 1.9 -1.1 0.6 91 0.5 SSE 6 9 3 5 1024.8 1024.8 0.0
19/02:30am 2.9 -0.2 1.1 88 0.7 SSE 7 9 4 5 1024.6 - 0.0
19/02:00am 3.3 0.1 0.9 84 0.9 SSE 7 9 4 5 1024.7 - 0.0
19/01:30am 3.7 0.6 1.1 83 1.0 SSE 7 13 4 7 1024.6 - 0.0
19/01:00am 4.2 1.1 1.4 82 1.1 SSE 7 11 4 6 1024.9 - 0.0
19/12:30am 4.8 1.0 1.5 79 1.3 S 11 15 6 8 1024.8 - 0.0
19/12:00am 5.5 1.7 2.0 78 1.4 S 11 13 6 7 1024.9 1024.9 0.0
 
Date/Time
EST
Temp
°C
App
Temp
°C
Dew
Point
Rel
Hum
%
Delta-T
°C
Wind Press
QNH
hPa
Press
MSL
hPa
Rain
since 9 am
mm
Dir
 
Spd
km/h
Gust
km/h
Spd
kts
Gust
kts
18/11:30pm 5.2 1.8 1.9 79 1.3 S 9 13 5 7 1025.0 - 0.0
18/11:00pm 4.4 2.7 1.6 82 1.1 S 0 0 0 0 1025.3 - 0.0
18/10:30pm 6.1 3.0 1.6 73 1.8 S 7 11 4 6 1025.1 - 0.0
18/10:00pm 6.7 3.6 1.2 68 2.2 S 7 11 4 6 1024.9 - 0.0
18/09:30pm 7.7 4.5 1.0 62 2.7 S 7 11 4 6 1024.8 - 0.0
18/09:00pm 9.1 5.0 0.0 53 3.6 SSW 11 13 6 7 1024.7 1024.7 0.0
18/08:30pm 9.3 6.1 0.9 55 3.4 S 7 9 4 5 1024.5 - 0.0
18/08:00pm 9.7 6.7 2.1 59 3.2 S 7 7 4 4 1024.2 - 0.0
18/07:30pm 11.5 8.6 1.2 49 4.3 S 6 7 3 4 1023.8 - 0.0
18/07:00pm 12.3 9.5 1.8 48 4.5 S 6 7 3 4 1023.5 - 0.0
18/06:30pm 13.6 10.7 1.2 43 5.3 S 6 9 3 5 1023.4 - 0.0
18/06:00pm 14.5 11.2 0.3 38 6.0 SSW 7 11 4 6 1023.3 1023.3 0.0
18/05:30pm 15.5 10.6 -0.8 33 6.8 S 15 20 8 11 1023.2 - 0.0
18/05:00pm 15.6 10.6 -1.0 32 6.9 SSW 15 20 8 11 1022.8 - 0.0
18/04:30pm 16.2 11.6 -1.1 30 7.2 SSW 13 19 7 10 1022.6 - 0.0
18/04:00pm 16.4 11.8 -0.7 31 7.2 SW 13 24 7 13 1022.6 - 0.0
18/03:30pm 15.3 9.7 -0.1 35 6.5 S 19 30 10 16 1022.7 - 0.0
18/03:00pm 15.5 9.8 -0.5 33 6.7 S 19 30 10 16 1022.7 1022.7 0.0
18/02:30pm 16.2 11.6 -1.1 30 7.2 SW 13 22 7 12 1022.5 - 0.0
18/02:00pm 15.9 10.6 -0.5 32 6.9 SW 17 24 9 13 1022.9 - 0.0
18/01:30pm 16.1 11.3 0.2 34 6.8 SW 15 24 8 13 1023.2 - 0.0
18/01:00pm 15.1 9.9 -0.1 35 6.4 WSW 17 24 9 13 1023.6 - 0.0
18/12:30pm 14.0 9.6 0.2 39 5.8 SSW 13 24 7 13 1024.0 - 0.0
18/12:00pm 14.3 9.9 0.6 39 5.8 WSW 13 24 7 13 1024.3 1024.3 0.0
18/11:30am 14.4 10.4 0.8 39 5.8 S 11 22 6 12 1024.5 - 0.0
18/11:00am 13.9 9.6 0.7 40 5.6 SSW 13 22 7 12 1024.8 - 0.0
18/10:30am 12.8 7.8 1.2 45 4.9 SW 17 35 9 19 1025.0 - 0.0
18/10:00am 11.8 6.3 0.4 45 4.7 SW 19 32 10 17 1025.3 - 0.0
18/09:30am 11.8 7.1 1.0 47 4.5 SW 15 20 8 11 1025.2 - 0.0
18/09:00am 9.5 5.4 2.1 60 3.1 SW 13 17 7 9 1025.2 1025.2 0.0
18/08:30am 7.1 2.9 1.9 69 2.1 SSW 13 20 7 11 1025.0 - 0.0
18/08:00am 5.4 0.8 1.6 76 1.5 SW 15 20 8 11 1024.9 - 0.0
18/07:30am 3.4 -0.9 1.3 86 0.8 SW 13 15 7 8 1024.6 - 0.0
18/07:00am 1.9 -2.1 0.8 92 0.4 WSW 11 15 6 8 1024.2 - 0.0
18/06:30am 0.7 - - - - WSW 11 13 6 7 1024.0 - 0.0
18/06:00am 1.0 -3.1 -0.1 92 0.4 WSW 11 13 6 7 1023.7 1023.7 0.0
18/05:30am 1.0 -3.1 -0.1 92 0.4 WSW 11 13 6 7 1023.3 - 0.0
18/05:00am 1.3 -3.2 -0.1 90 0.5 WSW 13 15 7 8 1023.1 - 0.0
18/04:30am 1.0 -3.1 -0.4 90 0.5 WSW 11 15 6 8 1023.1 - 0.0
18/04:00am 1.5 -2.9 0.1 90 0.5 WSW 13 13 7 7 1022.9 - 0.0
18/03:30am 1.8 -2.6 0.4 90 0.5 WSW 13 15 7 8 1022.7 - 0.0
18/03:00am 1.1 -2.6 0.0 92 0.4 WSW 9 13 5 7 1022.7 1022.7 0.0
18/02:30am 1.2 -2.1 0.1 92 0.4 WSW 7 13 4 7 1022.6 - 0.0
18/02:00am 1.8 -2.6 0.5 91 0.5 WSW 13 15 7 8 1022.6 - 0.0
18/01:30am 2.4 -1.2 0.8 89 0.6 WSW 9 11 5 6 1022.5 - 0.0
18/01:00am 3.0 -0.9 0.9 86 0.8 SW 11 15 6 8 1022.5 - 0.0
18/12:30am 3.9 0.0 1.0 81 1.1 SW 11 13 6 7 1022.6 - 0.0
18/12:00am 4.3 0.3 0.6 77 1.4 SW 11 13 6 7 1022.5 1022.5 0.0
 
Date/Time
EST
Temp
°C
App
Temp
°C
Dew
Point
Rel
Hum
%
Delta-T
°C
Wind Press
QNH
hPa
Press
MSL
hPa
Rain
since 9 am
mm
Dir
 
Spd
km/h
Gust
km/h
Spd
kts
Gust
kts
17/11:30pm 5.1 0.7 0.1 70 1.9 SW 13 17 7 9 1022.2 - 0.0
17/11:00pm 6.0 1.5 -0.6 62 2.5 SSW 13 17 7 9 1022.1 - 0.0
17/10:30pm 5.7 1.1 -0.7 63 2.4 SW 13 15 7 8 1022.1 - 0.0
17/10:00pm 7.0 2.4 -0.9 57 3.0 SW 13 17 7 9 1021.8 - 0.0
17/09:30pm 8.1 3.0 -1.7 50 3.7 SW 15 19 8 10 1021.3 - 0.0
17/09:00pm 8.0 2.6 -1.5 51 3.6 WSW 17 19 9 10 1021.0 1021.0 0.0
17/08:30pm 8.4 3.7 -1.9 48 3.9 SW 13 15 7 8 1020.7 - 0.0
17/08:00pm 9.5 4.4 -2.1 44 4.4 SW 15 17 8 9 1020.3 - 0.0
17/07:30pm 11.2 5.6 -2.6 38 5.3 SW 17 22 9 12 1020.0 - 0.0
17/07:00pm 12.4 6.4 -2.9 34 5.9 SW 19 24 10 13 1019.5 - 0.0
17/06:30pm 13.3 7.9 -1.3 36 5.9 SW 17 24 9 13 1019.0 - 0.0
17/06:00pm 14.7 8.6 -2.2 31 6.8 SW 20 35 11 19 1018.4 1018.6 0.0
17/05:30pm 15.9 7.4 -3.2 27 7.6 SW 32 44 17 24 1018.1 - 0.0
17/05:11pm 16.6 8.2 -2.6 27 7.8 SW 32 50 17 27 1017.8 - 0.0
17/05:00pm 16.8 8.2 -2.6 26 7.9 WSW 33 44 18 24 1017.5 - 0.0
17/04:30pm 17.1 8.7 -1.2 28 7.7 WSW 33 46 18 25 1017.1 - 0.0
17/04:00pm 17.6 9.5 0.8 32 7.4 SW 33 46 18 25 1016.9 - 0.0
17/03:30pm 16.7 8.7 0.3 33 7.1 SW 32 41 17 22 1016.8 - 0.0
17/03:00pm 18.1 10.0 -0.4 28 8.0 SW 32 43 17 23 1016.7 1016.8 0.0
17/02:30pm 18.2 9.9 -0.3 28 8.0 WSW 33 43 18 23 1016.8 - 0.0
17/02:00pm 16.6 8.4 0.1 32 7.1 WSW 33 43 18 23 1016.9 - 0.0
17/01:30pm 16.7 8.7 0.3 33 7.1 SW 32 46 17 25 1016.9 - 0.0
17/01:00pm 17.1 8.1 0.3 32 7.3 WSW 37 54 20 29 1017.1 - 0.0
17/12:53pm 17.9 9.7 0.3 30 7.7 WSW 33 54 18 29 1017.0 - 0.0
17/12:30pm 17.0 9.4 0.8 33 7.1 SW 30 41 16 22 1017.2 - 0.0
17/12:00pm 15.9 7.9 0.6 35 6.6 WSW 32 44 17 24 1017.5 1017.6 0.0
17/11:30am 16.4 9.4 1.8 37 6.5 SW 28 39 15 21 1017.5 - 0.0
17/11:05am 15.3 8.5 2.9 43 5.6 WSW 28 46 15 25 1017.4 - 0.0
17/11:00am 14.7 8.2 2.9 45 5.3 WSW 26 39 14 21 1017.6 - 0.0
17/10:30am 14.7 8.4 3.8 48 5.0 WSW 26 39 14 21 1017.8 - 0.0
17/10:00am 13.6 7.4 4.2 53 4.3 SW 26 35 14 19 - - 0.0
17/09:30am 13.3 7.3 5.1 57 3.8 WSW 26 33 14 18 1017.7 - 0.0
17/09:00am 12.4 6.9 6.0 65 3.0 WSW 24 32 13 17 1017.7 1017.8 0.0
17/08:30am 11.0 5.7 6.8 75 2.0 SW 24 33 13 18 1017.6 - 0.0
17/08:00am 9.2 4.6 8.2 93 0.5 WSW 22 28 12 15 1017.3 - 0.0
17/07:30am 8.1 3.9 7.5 96 0.3 WSW 19 22 10 12 1016.9 - 0.0
17/07:00am 7.3 3.3 6.6 95 0.3 WSW 17 20 9 11 1016.7 - 0.0
17/06:30am 7.4 3.8 6.7 95 0.3 W 15 19 8 10 1016.2 - 0.0
17/06:00am 7.8 4.3 7.2 96 0.3 SW 15 20 8 11 1016.0 1016.1 0.0
17/05:30am 7.4 3.4 6.5 94 0.4 WSW 17 20 9 11 1016.0 - 0.0
17/05:00am 5.7 2.1 4.8 94 0.4 W 13 17 7 9 1015.9 - 0.0
17/04:30am 7.0 3.2 5.9 93 0.5 W 15 17 8 9 1015.8 - 0.0
17/04:00am 8.2 4.5 6.5 89 0.8 W 15 19 8 10 1015.6 - 0.0
17/03:30am 8.7 5.1 6.8 88 0.9 W 15 17 8 9 1015.6 - 0.0
17/03:00am 9.6 5.3 6.8 83 1.3 WSW 19 24 10 13 1015.5 1015.6 0.0
17/02:30am 8.6 4.7 5.3 80 1.5 W 15 17 8 9 1015.6 - 0.0
17/02:00am 7.8 3.7 4.4 79 1.5 W 15 17 8 9 1015.5 - 0.0
17/01:30am 6.6 2.8 4.0 83 1.1 W 13 15 7 8 1015.5 - 0.0
17/01:00am 8.7 4.9 4.1 73 2.0 W 13 15 7 8 1015.6 - 0.0
17/12:30am 9.6 5.4 3.9 67 2.5 W 15 17 8 9 1015.8 - 0.0
17/12:00am 8.2 4.0 3.6 73 2.0 W 15 17 8 9 1015.6 1015.7 0.0
 
Date/Time
EST
Temp
°C
App
Temp
°C
Dew
Point
Rel
Hum
%
Delta-T
°C
Wind Press
QNH
hPa
Press
MSL
hPa
Rain
since 9 am
mm
Dir
 
Spd
km/h
Gust
km/h
Spd
kts
Gust
kts
16/11:30pm 8.2 4.3 3.3 71 2.1 WSW 13 17 7 9 1015.4 - 0.0
16/11:00pm 10.1 5.8 3.5 63 2.9 WSW 15 17 8 9 1015.4 - 0.0
16/10:30pm 12.1 6.9 3.3 55 3.9 WSW 20 24 11 13 1015.2 - 0.0
16/10:00pm 12.2 7.6 3.7 56 3.8 SW 17 22 9 12 1015.0 - 0.0
16/09:30pm 13.5 9.2 3.2 49 4.6 SW 15 20 8 11 1014.9 - 0.0
16/09:00pm 13.2 8.8 2.8 49 4.6 WSW 15 17 8 9 1014.8 1014.9 0.0
16/08:30pm 12.4 8.0 2.6 51 4.3 WSW 15 17 8 9 1014.5 - 0.0
16/08:00pm 10.1 5.8 3.2 62 3.0 WSW 15 19 8 10 1014.2 - 0.0
16/07:30pm 10.9 7.4 3.4 60 3.3 WSW 11 13 6 7 1013.8 - 0.0
16/07:00pm 13.1 9.5 3.0 50 4.5 SW 11 13 6 7 1013.4 - 0.0
16/06:30pm 14.5 10.8 2.3 43 5.4 SW 11 15 6 8 1013.2 - 0.0
16/06:00pm 16.5 11.1 1.4 36 6.7 SW 19 28 10 15 1012.9 1012.9 0.0
16/05:30pm 17.8 11.0 0.9 32 7.5 SW 26 35 14 19 1012.6 - 0.0
16/05:00pm 18.2 10.7 0.9 31 7.7 SW 30 43 16 23 1012.4 - 0.0
16/04:30pm 19.0 10.7 -0.2 27 8.4 SW 33 46 18 25 1012.1 - 0.0
16/04:00pm 20.3 11.7 -2.7 21 9.7 WSW 33 50 18 27 1011.8 - 0.0

Other Formats:

Comma delimited format used in spreadsheet applications
http://www.bom.gov.au/fwo/IDV60801/IDV60801.94843.axf

JavaScript Object Notation format (JSON) in row-major order
http://www.bom.gov.au/fwo/IDV60801/IDV60801.94843.json